sensor_id;sensor_type;location;lat;lon;timestamp;P1;durP1;ratioP1;P2;durP2;ratioP2
44486;SDS011;30191;50.908;6.962;2022-09-20T00:00:48;8.18;;;1.52;;
44486;SDS011;30191;50.908;6.962;2022-09-20T00:03:14;9.73;;;1.85;;
44486;SDS011;30191;50.908;6.962;2022-09-20T00:05:42;6.57;;;1.20;;
44486;SDS011;30191;50.908;6.962;2022-09-20T00:08:10;8.43;;;1.80;;
44486;SDS011;30191;50.908;6.962;2022-09-20T00:10:38;3.17;;;1.27;;
44486;SDS011;30191;50.908;6.962;2022-09-20T00:13:04;5.75;;;1.30;;
44486;SDS011;30191;50.908;6.962;2022-09-20T00:15:32;5.82;;;1.30;;
44486;SDS011;30191;50.908;6.962;2022-09-20T00:17:58;6.28;;;1.40;;
44486;SDS011;30191;50.908;6.962;2022-09-20T00:20:24;6.18;;;1.30;;
44486;SDS011;30191;50.908;6.962;2022-09-20T00:22:50;10.15;;;1.83;;
44486;SDS011;30191;50.908;6.962;2022-09-20T00:25:17;5.78;;;1.33;;
44486;SDS011;30191;50.908;6.962;2022-09-20T00:27:43;4.95;;;1.38;;
44486;SDS011;30191;50.908;6.962;2022-09-20T00:30:09;8.20;;;1.70;;
44486;SDS011;30191;50.908;6.962;2022-09-20T00:32:37;6.10;;;1.63;;
44486;SDS011;30191;50.908;6.962;2022-09-20T00:35:03;6.25;;;1.50;;
44486;SDS011;30191;50.908;6.962;2022-09-20T00:37:34;4.53;;;1.60;;
44486;SDS011;30191;50.908;6.962;2022-09-20T00:40:05;6.22;;;1.40;;
44486;SDS011;30191;50.908;6.962;2022-09-20T00:42:33;7.68;;;1.90;;
44486;SDS011;30191;50.908;6.962;2022-09-20T00:45:00;7.10;;;1.60;;
44486;SDS011;30191;50.908;6.962;2022-09-20T00:49:57;6.65;;;1.73;;
44486;SDS011;30191;50.908;6.962;2022-09-20T00:52:30;4.93;;;1.70;;
44486;SDS011;30191;50.908;6.962;2022-09-20T00:54:57;9.55;;;1.58;;
44486;SDS011;30191;50.908;6.962;2022-09-20T00:57:24;6.55;;;1.80;;
44486;SDS011;30191;50.908;6.962;2022-09-20T00:59:50;8.95;;;1.38;;
44486;SDS011;30191;50.908;6.962;2022-09-20T01:02:19;9.93;;;1.65;;
44486;SDS011;30191;50.908;6.962;2022-09-20T01:04:48;13.43;;;1.65;;
44486;SDS011;30191;50.908;6.962;2022-09-20T01:07:15;6.70;;;1.88;;
44486;SDS011;30191;50.908;6.962;2022-09-20T01:09:46;8.05;;;1.90;;
44486;SDS011;30191;50.908;6.962;2022-09-20T01:12:13;4.18;;;1.88;;
44486;SDS011;30191;50.908;6.962;2022-09-20T01:14:42;9.65;;;1.90;;
44486;SDS011;30191;50.908;6.962;2022-09-20T01:17:10;6.72;;;1.75;;
44486;SDS011;30191;50.908;6.962;2022-09-20T01:22:43;7.82;;;2.00;;
44486;SDS011;30191;50.908;6.962;2022-09-20T01:28:21;6.55;;;1.90;;
44486;SDS011;30191;50.908;6.962;2022-09-20T01:30:59;10.57;;;2.17;;
44486;SDS011;30191;50.908;6.962;2022-09-20T01:36:04;7.63;;;2.00;;
44486;SDS011;30191;50.908;6.962;2022-09-20T01:38:38;8.77;;;2.15;;
44486;SDS011;30191;50.908;6.962;2022-09-20T01:41:14;11.13;;;2.30;;
44486;SDS011;30191;50.908;6.962;2022-09-20T01:46:35;8.70;;;2.67;;
44486;SDS011;30191;50.908;6.962;2022-09-20T02:08:21;7.13;;;2.60;;
44486;SDS011;30191;50.908;6.962;2022-09-20T02:16:56;10.45;;;2.85;;
44486;SDS011;30191;50.908;6.962;2022-09-20T02:19:53;6.38;;;2.33;;
44486;SDS011;30191;50.908;6.962;2022-09-20T02:22:27;8.57;;;2.45;;
44486;SDS011;30191;50.908;6.962;2022-09-20T02:25:17;12.95;;;3.20;;
44486;SDS011;30191;50.908;6.962;2022-09-20T02:49:27;6.13;;;2.20;;
44486;SDS011;30191;50.908;6.962;2022-09-20T02:52:19;8.30;;;2.50;;
44486;SDS011;30191;50.908;6.962;2022-09-20T02:54:57;12.00;;;2.60;;
44486;SDS011;30191;50.908;6.962;2022-09-20T03:00:13;8.32;;;2.33;;
44486;SDS011;30191;50.908;6.962;2022-09-20T03:06:08;7.18;;;2.08;;
44486;SDS011;30191;50.908;6.962;2022-09-20T03:08:59;10.15;;;2.42;;
44486;SDS011;30191;50.908;6.962;2022-09-20T03:14:37;7.68;;;2.47;;
44486;SDS011;30191;50.908;6.962;2022-09-20T03:22:55;9.15;;;2.17;;
44486;SDS011;30191;50.908;6.962;2022-09-20T03:39:36;8.20;;;2.22;;
44486;SDS011;30191;50.908;6.962;2022-09-20T03:42:23;6.53;;;1.98;;
44486;SDS011;30191;50.908;6.962;2022-09-20T03:47:52;7.53;;;2.22;;
44486;SDS011;30191;50.908;6.962;2022-09-20T03:56:03;9.05;;;2.45;;
44486;SDS011;30191;50.908;6.962;2022-09-20T04:06:59;8.85;;;2.47;;
44486;SDS011;30191;50.908;6.962;2022-09-20T04:12:39;7.10;;;2.33;;
44486;SDS011;30191;50.908;6.962;2022-09-20T04:18:19;10.15;;;2.20;;
44486;SDS011;30191;50.908;6.962;2022-09-20T04:21:13;6.15;;;1.88;;
44486;SDS011;30191;50.908;6.962;2022-09-20T04:23:51;7.50;;;2.00;;
44486;SDS011;30191;50.908;6.962;2022-09-20T04:26:19;7.00;;;1.92;;
44486;SDS011;30191;50.908;6.962;2022-09-20T04:34:30;4.72;;;1.83;;
44486;SDS011;30191;50.908;6.962;2022-09-20T04:37:27;9.25;;;2.35;;
44486;SDS011;30191;50.908;6.962;2022-09-20T04:45:56;10.27;;;2.10;;
44486;SDS011;30191;50.908;6.962;2022-09-20T04:48:47;13.50;;;2.20;;
44486;SDS011;30191;50.908;6.962;2022-09-20T05:25:06;19.55;;;2.47;;
44486;SDS011;30191;50.908;6.962;2022-09-20T05:30:58;8.85;;;2.20;;
44486;SDS011;30191;50.908;6.962;2022-09-20T05:36:35;9.25;;;2.47;;
44486;SDS011;30191;50.908;6.962;2022-09-20T05:50:51;9.82;;;2.28;;
44486;SDS011;30191;50.908;6.962;2022-09-20T06:02:20;8.25;;;2.70;;
44486;SDS011;30191;50.908;6.962;2022-09-20T06:16:01;10.23;;;3.55;;
44486;SDS011;30191;50.908;6.962;2022-09-20T06:18:34;10.40;;;3.53;;
44486;SDS011;30191;50.908;6.962;2022-09-20T06:23:56;11.43;;;3.58;;
44486;SDS011;30191;50.908;6.962;2022-09-20T06:26:25;13.85;;;4.00;;
44486;SDS011;30191;50.908;6.962;2022-09-20T06:28:57;10.48;;;3.88;;
44486;SDS011;30191;50.908;6.962;2022-09-20T06:31:27;8.35;;;3.95;;
44486;SDS011;30191;50.908;6.962;2022-09-20T06:33:58;9.70;;;3.72;;
44486;SDS011;30191;50.908;6.962;2022-09-20T06:36:32;12.82;;;4.10;;
44486;SDS011;30191;50.908;6.962;2022-09-20T06:42:05;9.82;;;4.45;;
44486;SDS011;30191;50.908;6.962;2022-09-20T06:44:34;11.32;;;4.25;;
44486;SDS011;30191;50.908;6.962;2022-09-20T06:47:05;18.85;;;4.68;;
44486;SDS011;30191;50.908;6.962;2022-09-20T06:49:34;11.38;;;4.97;;
44486;SDS011;30191;50.908;6.962;2022-09-20T06:52:00;11.43;;;4.72;;
44486;SDS011;30191;50.908;6.962;2022-09-20T06:54:28;11.27;;;4.30;;
44486;SDS011;30191;50.908;6.962;2022-09-20T06:56:54;15.57;;;4.32;;
44486;SDS011;30191;50.908;6.962;2022-09-20T06:59:20;10.10;;;4.18;;
44486;SDS011;30191;50.908;6.962;2022-09-20T07:01:45;12.45;;;4.38;;
44486;SDS011;30191;50.908;6.962;2022-09-20T07:04:11;12.52;;;4.80;;
44486;SDS011;30191;50.908;6.962;2022-09-20T07:06:37;13.40;;;4.47;;
44486;SDS011;30191;50.908;6.962;2022-09-20T07:09:03;9.35;;;4.10;;
44486;SDS011;30191;50.908;6.962;2022-09-20T07:11:29;12.07;;;4.78;;
44486;SDS011;30191;50.908;6.962;2022-09-20T07:13:59;13.55;;;5.10;;
44486;SDS011;30191;50.908;6.962;2022-09-20T07:16:25;11.20;;;4.40;;
44486;SDS011;30191;50.908;6.962;2022-09-20T07:18:51;7.68;;;3.78;;
44486;SDS011;30191;50.908;6.962;2022-09-20T07:21:18;12.07;;;3.85;;
44486;SDS011;30191;50.908;6.962;2022-09-20T07:23:44;10.02;;;4.20;;
44486;SDS011;30191;50.908;6.962;2022-09-20T07:26:17;13.57;;;4.30;;
44486;SDS011;30191;50.908;6.962;2022-09-20T07:28:47;12.57;;;4.38;;
44486;SDS011;30191;50.908;6.962;2022-09-20T07:31:14;10.05;;;3.78;;
44486;SDS011;30191;50.908;6.962;2022-09-20T07:33:41;14.32;;;4.13;;
44486;SDS011;30191;50.908;6.962;2022-09-20T07:36:08;10.50;;;3.53;;
44486;SDS011;30191;50.908;6.962;2022-09-20T07:38:36;8.85;;;3.58;;
44486;SDS011;30191;50.908;6.962;2022-09-20T07:41:02;9.77;;;3.40;;
44486;SDS011;30191;50.908;6.962;2022-09-20T07:43:29;9.52;;;3.35;;
44486;SDS011;30191;50.908;6.962;2022-09-20T07:45:56;12.07;;;4.00;;
44486;SDS011;30191;50.908;6.962;2022-09-20T07:48:24;10.68;;;3.28;;
44486;SDS011;30191;50.908;6.962;2022-09-20T07:50:54;11.73;;;3.17;;
44486;SDS011;30191;50.908;6.962;2022-09-20T07:53:21;8.95;;;3.00;;
44486;SDS011;30191;50.908;6.962;2022-09-20T07:56:08;7.97;;;3.13;;
44486;SDS011;30191;50.908;6.962;2022-09-20T07:58:37;7.40;;;3.03;;
44486;SDS011;30191;50.908;6.962;2022-09-20T08:01:05;13.52;;;3.00;;
44486;SDS011;30191;50.908;6.962;2022-09-20T08:03:32;9.98;;;3.00;;
44486;SDS011;30191;50.908;6.962;2022-09-20T08:06:00;11.48;;;2.50;;
44486;SDS011;30191;50.908;6.962;2022-09-20T08:08:27;8.57;;;2.45;;
44486;SDS011;30191;50.908;6.962;2022-09-20T08:11:00;8.07;;;2.25;;
44486;SDS011;30191;50.908;6.962;2022-09-20T08:13:27;8.98;;;1.92;;
44486;SDS011;30191;50.908;6.962;2022-09-20T08:16:03;9.63;;;1.90;;
44486;SDS011;30191;50.908;6.962;2022-09-20T08:18:31;9.95;;;2.13;;
44486;SDS011;30191;50.908;6.962;2022-09-20T08:21:02;6.63;;;1.95;;
44486;SDS011;30191;50.908;6.962;2022-09-20T08:23:33;8.23;;;1.70;;
44486;SDS011;30191;50.908;6.962;2022-09-20T08:26:03;8.25;;;1.95;;
44486;SDS011;30191;50.908;6.962;2022-09-20T08:28:32;11.50;;;2.13;;
44486;SDS011;30191;50.908;6.962;2022-09-20T08:33:27;7.28;;;1.90;;
44486;SDS011;30191;50.908;6.962;2022-09-20T08:35:52;8.23;;;2.05;;
44486;SDS011;30191;50.908;6.962;2022-09-20T08:38:18;12.88;;;1.90;;
44486;SDS011;30191;50.908;6.962;2022-09-20T08:40:44;7.90;;;1.63;;
44486;SDS011;30191;50.908;6.962;2022-09-20T08:43:11;4.93;;;1.60;;
44486;SDS011;30191;50.908;6.962;2022-09-20T08:45:37;11.43;;;1.95;;
44486;SDS011;30191;50.908;6.962;2022-09-20T08:48:05;6.43;;;1.60;;
44486;SDS011;30191;50.908;6.962;2022-09-20T08:50:36;9.80;;;1.92;;
44486;SDS011;30191;50.908;6.962;2022-09-20T08:53:02;9.23;;;1.80;;
44486;SDS011;30191;50.908;6.962;2022-09-20T08:55:28;8.90;;;1.77;;
44486;SDS011;30191;50.908;6.962;2022-09-20T08:57:56;6.13;;;1.48;;
44486;SDS011;30191;50.908;6.962;2022-09-20T09:00:32;9.73;;;1.63;;
44486;SDS011;30191;50.908;6.962;2022-09-20T09:03:03;9.88;;;1.65;;
44486;SDS011;30191;50.908;6.962;2022-09-20T09:10:47;8.13;;;1.40;;
44486;SDS011;30191;50.908;6.962;2022-09-20T09:15:54;7.90;;;1.50;;
44486;SDS011;30191;50.908;6.962;2022-09-20T09:18:36;7.43;;;1.70;;
44486;SDS011;30191;50.908;6.962;2022-09-20T09:21:05;7.57;;;1.20;;
44486;SDS011;30191;50.908;6.962;2022-09-20T09:23:39;7.95;;;1.45;;
44486;SDS011;30191;50.908;6.962;2022-09-20T09:26:17;9.52;;;1.67;;
44486;SDS011;30191;50.908;6.962;2022-09-20T09:28:45;7.95;;;1.23;;
44486;SDS011;30191;50.908;6.962;2022-09-20T09:31:22;6.97;;;1.33;;
44486;SDS011;30191;50.908;6.962;2022-09-20T09:33:52;7.32;;;1.35;;
44486;SDS011;30191;50.908;6.962;2022-09-20T09:36:20;8.80;;;1.30;;
44486;SDS011;30191;50.908;6.962;2022-09-20T09:38:49;6.32;;;1.30;;
44486;SDS011;30191;50.908;6.962;2022-09-20T09:44:04;5.32;;;1.15;;
44486;SDS011;30191;50.908;6.962;2022-09-20T09:46:34;8.70;;;1.30;;
44486;SDS011;30191;50.908;6.962;2022-09-20T09:49:13;4.05;;;1.17;;
44486;SDS011;30191;50.908;6.962;2022-09-20T09:54:25;6.50;;;1.40;;
44486;SDS011;30191;50.908;6.962;2022-09-20T10:05:29;6.43;;;1.33;;
44486;SDS011;30191;50.908;6.962;2022-09-20T10:08:15;6.47;;;1.50;;
44486;SDS011;30191;50.908;6.962;2022-09-20T10:13:20;6.82;;;1.17;;
44486;SDS011;30191;50.908;6.962;2022-09-20T10:19:16;11.27;;;1.38;;
44486;SDS011;30191;50.908;6.962;2022-09-20T10:25:14;6.70;;;1.00;;
44486;SDS011;30191;50.908;6.962;2022-09-20T10:39:01;5.80;;;1.10;;
44486;SDS011;30191;50.908;6.962;2022-09-20T10:47:31;4.75;;;0.93;;
44486;SDS011;30191;50.908;6.962;2022-09-20T10:53:11;9.15;;;1.15;;
44486;SDS011;30191;50.908;6.962;2022-09-20T11:07:17;4.20;;;1.05;;
44486;SDS011;30191;50.908;6.962;2022-09-20T11:10:00;4.78;;;0.75;;
44486;SDS011;30191;50.908;6.962;2022-09-20T11:12:38;7.28;;;0.93;;
44486;SDS011;30191;50.908;6.962;2022-09-20T11:23:49;6.15;;;0.88;;
44486;SDS011;30191;50.908;6.962;2022-09-20T11:26:38;6.75;;;0.90;;
44486;SDS011;30191;50.908;6.962;2022-09-20T11:29:24;3.75;;;1.08;;
44486;SDS011;30191;50.908;6.962;2022-09-20T11:31:59;4.43;;;1.00;;
44486;SDS011;30191;50.908;6.962;2022-09-20T11:34:32;6.38;;;1.05;;
44486;SDS011;30191;50.908;6.962;2022-09-20T11:37:04;5.93;;;1.00;;
44486;SDS011;30191;50.908;6.962;2022-09-20T11:39:35;5.25;;;0.88;;
44486;SDS011;30191;50.908;6.962;2022-09-20T11:42:27;6.05;;;1.13;;
44486;SDS011;30191;50.908;6.962;2022-09-20T11:44:56;6.93;;;1.20;;
44486;SDS011;30191;50.908;6.962;2022-09-20T11:47:41;8.15;;;0.80;;
44486;SDS011;30191;50.908;6.962;2022-09-20T11:55:53;2.90;;;0.80;;
44486;SDS011;30191;50.908;6.962;2022-09-20T11:58:27;6.70;;;1.15;;
44486;SDS011;30191;50.908;6.962;2022-09-20T12:00:54;5.20;;;1.10;;
44486;SDS011;30191;50.908;6.962;2022-09-20T12:03:33;4.28;;;0.90;;
44486;SDS011;30191;50.908;6.962;2022-09-20T12:06:06;3.65;;;0.80;;
44486;SDS011;30191;50.908;6.962;2022-09-20T12:08:44;3.78;;;0.90;;
44486;SDS011;30191;50.908;6.962;2022-09-20T12:11:14;5.20;;;1.00;;
44486;SDS011;30191;50.908;6.962;2022-09-20T12:13:50;3.63;;;0.90;;
44486;SDS011;30191;50.908;6.962;2022-09-20T12:24:32;2.35;;;0.60;;
44486;SDS011;30191;50.908;6.962;2022-09-20T12:30:01;5.15;;;0.75;;
44486;SDS011;30191;50.908;6.962;2022-09-20T12:32:58;2.58;;;0.68;;
44486;SDS011;30191;50.908;6.962;2022-09-20T12:43:33;2.40;;;0.50;;
44486;SDS011;30191;50.908;6.962;2022-09-20T12:46:03;4.15;;;0.73;;
44486;SDS011;30191;50.908;6.962;2022-09-20T12:48:31;1.23;;;0.50;;
44486;SDS011;30191;50.908;6.962;2022-09-20T12:51:04;1.45;;;0.50;;
44486;SDS011;30191;50.908;6.962;2022-09-20T12:54:08;2.78;;;0.63;;
44486;SDS011;30191;50.908;6.962;2022-09-20T12:56:36;2.97;;;0.50;;
44486;SDS011;30191;50.908;6.962;2022-09-20T12:59:05;1.92;;;0.50;;
44486;SDS011;30191;50.908;6.962;2022-09-20T13:01:47;3.58;;;0.60;;
44486;SDS011;30191;50.908;6.962;2022-09-20T13:10:04;1.42;;;0.32;;
44486;SDS011;30191;50.908;6.962;2022-09-20T13:12:40;2.03;;;0.50;;
44486;SDS011;30191;50.908;6.962;2022-09-20T13:15:10;2.13;;;0.50;;
44486;SDS011;30191;50.908;6.962;2022-09-20T13:17:42;2.78;;;0.50;;
44486;SDS011;30191;50.908;6.962;2022-09-20T13:20:14;2.03;;;0.55;;
44486;SDS011;30191;50.908;6.962;2022-09-20T13:22:44;8.13;;;0.85;;
44486;SDS011;30191;50.908;6.962;2022-09-20T13:25:14;2.20;;;0.60;;
44486;SDS011;30191;50.908;6.962;2022-09-20T13:30:34;3.45;;;0.68;;
44486;SDS011;30191;50.908;6.962;2022-09-20T13:33:18;5.82;;;0.75;;
44486;SDS011;30191;50.908;6.962;2022-09-20T13:35:45;3.95;;;0.73;;
44486;SDS011;30191;50.908;6.962;2022-09-20T13:38:14;4.93;;;0.93;;
44486;SDS011;30191;50.908;6.962;2022-09-20T13:40:49;5.45;;;0.90;;
44486;SDS011;30191;50.908;6.962;2022-09-20T13:45:44;3.85;;;0.80;;
44486;SDS011;30191;50.908;6.962;2022-09-20T13:48:11;3.55;;;0.80;;
44486;SDS011;30191;50.908;6.962;2022-09-20T13:50:37;3.00;;;0.75;;
44486;SDS011;30191;50.908;6.962;2022-09-20T13:53:13;5.78;;;0.90;;
44486;SDS011;30191;50.908;6.962;2022-09-20T13:55:41;2.42;;;0.70;;
44486;SDS011;30191;50.908;6.962;2022-09-20T13:58:16;7.32;;;1.02;;
44486;SDS011;30191;50.908;6.962;2022-09-20T14:00:58;3.85;;;0.70;;
44486;SDS011;30191;50.908;6.962;2022-09-20T14:03:24;4.53;;;0.80;;
44486;SDS011;30191;50.908;6.962;2022-09-20T14:06:01;4.65;;;0.70;;
44486;SDS011;30191;50.908;6.962;2022-09-20T14:11:21;2.33;;;0.95;;
44486;SDS011;30191;50.908;6.962;2022-09-20T14:13:48;3.60;;;0.73;;
44486;SDS011;30191;50.908;6.962;2022-09-20T14:16:18;3.28;;;0.60;;
44486;SDS011;30191;50.908;6.962;2022-09-20T14:18:47;2.45;;;0.60;;
44486;SDS011;30191;50.908;6.962;2022-09-20T14:21:16;1.42;;;0.52;;
44486;SDS011;30191;50.908;6.962;2022-09-20T14:23:49;3.22;;;0.63;;
44486;SDS011;30191;50.908;6.962;2022-09-20T14:28:47;2.33;;;0.40;;
44486;SDS011;30191;50.908;6.962;2022-09-20T14:31:24;3.08;;;0.70;;
44486;SDS011;30191;50.908;6.962;2022-09-20T14:33:54;3.53;;;0.60;;
44486;SDS011;30191;50.908;6.962;2022-09-20T14:36:23;2.30;;;0.50;;
44486;SDS011;30191;50.908;6.962;2022-09-20T14:38:52;3.35;;;0.60;;
44486;SDS011;30191;50.908;6.962;2022-09-20T14:41:32;2.92;;;0.60;;
44486;SDS011;30191;50.908;6.962;2022-09-20T14:44:00;1.67;;;0.50;;
44486;SDS011;30191;50.908;6.962;2022-09-20T14:46:33;2.13;;;0.80;;
44486;SDS011;30191;50.908;6.962;2022-09-20T14:51:50;4.05;;;0.80;;
44486;SDS011;30191;50.908;6.962;2022-09-20T14:54:27;3.03;;;0.60;;
44486;SDS011;30191;50.908;6.962;2022-09-20T14:56:54;2.78;;;0.57;;
44486;SDS011;30191;50.908;6.962;2022-09-20T14:59:42;2.38;;;0.60;;
44486;SDS011;30191;50.908;6.962;2022-09-20T15:02:12;2.90;;;0.52;;
44486;SDS011;30191;50.908;6.962;2022-09-20T15:04:39;4.72;;;0.80;;
44486;SDS011;30191;50.908;6.962;2022-09-20T15:07:15;1.33;;;0.50;;
44486;SDS011;30191;50.908;6.962;2022-09-20T15:09:40;2.75;;;0.57;;
44486;SDS011;30191;50.908;6.962;2022-09-20T15:14:41;2.92;;;0.60;;
44486;SDS011;30191;50.908;6.962;2022-09-20T15:17:12;3.00;;;0.52;;
44486;SDS011;30191;50.908;6.962;2022-09-20T15:19:41;2.15;;;0.70;;
44486;SDS011;30191;50.908;6.962;2022-09-20T15:22:07;2.25;;;0.77;;
44486;SDS011;30191;50.908;6.962;2022-09-20T15:24:34;1.90;;;0.45;;
44486;SDS011;30191;50.908;6.962;2022-09-20T15:27:00;4.22;;;0.60;;
44486;SDS011;30191;50.908;6.962;2022-09-20T15:29:25;2.55;;;0.40;;
44486;SDS011;30191;50.908;6.962;2022-09-20T15:31:51;5.63;;;1.70;;
44486;SDS011;30191;50.908;6.962;2022-09-20T15:34:17;3.15;;;1.10;;
44486;SDS011;30191;50.908;6.962;2022-09-20T15:36:43;1.48;;;0.60;;
44486;SDS011;30191;50.908;6.962;2022-09-20T15:39:09;2.83;;;0.80;;
44486;SDS011;30191;50.908;6.962;2022-09-20T15:41:35;4.82;;;1.42;;
44486;SDS011;30191;50.908;6.962;2022-09-20T15:44:02;2.65;;;1.02;;
44486;SDS011;30191;50.908;6.962;2022-09-20T15:46:28;5.35;;;0.90;;
44486;SDS011;30191;50.908;6.962;2022-09-20T15:48:55;5.20;;;0.90;;
44486;SDS011;30191;50.908;6.962;2022-09-20T15:51:23;6.40;;;0.85;;
44486;SDS011;30191;50.908;6.962;2022-09-20T15:53:56;3.97;;;0.77;;
44486;SDS011;30191;50.908;6.962;2022-09-20T15:56:28;3.00;;;0.80;;
44486;SDS011;30191;50.908;6.962;2022-09-20T15:58:59;3.63;;;0.70;;
44486;SDS011;30191;50.908;6.962;2022-09-20T16:03:52;2.88;;;1.60;;
44486;SDS011;30191;50.908;6.962;2022-09-20T16:06:19;7.47;;;3.35;;
44486;SDS011;30191;50.908;6.962;2022-09-20T16:08:46;4.85;;;0.77;;
44486;SDS011;30191;50.908;6.962;2022-09-20T16:11:12;4.65;;;0.90;;
44486;SDS011;30191;50.908;6.962;2022-09-20T16:13:40;4.53;;;1.20;;
44486;SDS011;30191;50.908;6.962;2022-09-20T16:16:06;3.15;;;1.10;;
44486;SDS011;30191;50.908;6.962;2022-09-20T16:18:35;4.63;;;0.80;;
44486;SDS011;30191;50.908;6.962;2022-09-20T16:21:19;3.47;;;0.85;;
44486;SDS011;30191;50.908;6.962;2022-09-20T16:23:46;2.08;;;0.70;;
44486;SDS011;30191;50.908;6.962;2022-09-20T16:26:14;4.10;;;1.30;;
44486;SDS011;30191;50.908;6.962;2022-09-20T16:28:40;3.88;;;0.55;;
44486;SDS011;30191;50.908;6.962;2022-09-20T16:31:29;2.25;;;0.80;;
44486;SDS011;30191;50.908;6.962;2022-09-20T16:33:53;3.03;;;0.60;;
44486;SDS011;30191;50.908;6.962;2022-09-20T16:36:18;2.42;;;0.50;;
44486;SDS011;30191;50.908;6.962;2022-09-20T16:38:44;2.47;;;0.57;;
44486;SDS011;30191;50.908;6.962;2022-09-20T16:41:10;2.15;;;0.50;;
44486;SDS011;30191;50.908;6.962;2022-09-20T16:43:36;2.58;;;0.60;;
44486;SDS011;30191;50.908;6.962;2022-09-20T16:46:02;3.72;;;0.50;;
44486;SDS011;30191;50.908;6.962;2022-09-20T16:48:28;3.53;;;0.77;;
44486;SDS011;30191;50.908;6.962;2022-09-20T16:50:55;4.00;;;2.00;;
44486;SDS011;30191;50.908;6.962;2022-09-20T16:53:22;6.78;;;0.80;;
44486;SDS011;30191;50.908;6.962;2022-09-20T16:55:49;2.65;;;0.60;;
44486;SDS011;30191;50.908;6.962;2022-09-20T16:58:15;4.30;;;0.90;;
44486;SDS011;30191;50.908;6.962;2022-09-20T17:00:42;3.13;;;0.63;;
44486;SDS011;30191;50.908;6.962;2022-09-20T17:03:07;5.95;;;0.95;;
44486;SDS011;30191;50.908;6.962;2022-09-20T17:05:33;3.63;;;0.80;;
44486;SDS011;30191;50.908;6.962;2022-09-20T17:08:03;3.20;;;0.80;;
44486;SDS011;30191;50.908;6.962;2022-09-20T17:10:28;3.45;;;0.63;;
44486;SDS011;30191;50.908;6.962;2022-09-20T17:12:54;3.88;;;0.85;;
44486;SDS011;30191;50.908;6.962;2022-09-20T17:15:23;1.98;;;0.55;;
44486;SDS011;30191;50.908;6.962;2022-09-20T17:17:49;2.50;;;0.70;;
44486;SDS011;30191;50.908;6.962;2022-09-20T17:20:14;1.73;;;0.70;;
44486;SDS011;30191;50.908;6.962;2022-09-20T17:22:40;3.85;;;0.80;;
44486;SDS011;30191;50.908;6.962;2022-09-20T17:25:06;2.15;;;0.57;;
44486;SDS011;30191;50.908;6.962;2022-09-20T17:27:32;2.60;;;0.50;;
44486;SDS011;30191;50.908;6.962;2022-09-20T17:29:58;3.10;;;0.60;;
44486;SDS011;30191;50.908;6.962;2022-09-20T17:32:23;2.33;;;0.77;;
44486;SDS011;30191;50.908;6.962;2022-09-20T17:34:49;1.60;;;0.70;;
44486;SDS011;30191;50.908;6.962;2022-09-20T17:37:15;3.90;;;0.98;;
44486;SDS011;30191;50.908;6.962;2022-09-20T17:39:40;3.22;;;1.00;;
44486;SDS011;30191;50.908;6.962;2022-09-20T17:42:06;3.78;;;0.82;;
44486;SDS011;30191;50.908;6.962;2022-09-20T17:44:31;5.30;;;1.10;;
44486;SDS011;30191;50.908;6.962;2022-09-20T17:47:00;5.75;;;0.98;;
44486;SDS011;30191;50.908;6.962;2022-09-20T17:49:26;3.47;;;0.88;;
44486;SDS011;30191;50.908;6.962;2022-09-20T17:51:53;6.47;;;1.30;;
44486;SDS011;30191;50.908;6.962;2022-09-20T17:54:20;2.92;;;1.02;;
44486;SDS011;30191;50.908;6.962;2022-09-20T17:56:47;4.10;;;1.10;;
44486;SDS011;30191;50.908;6.962;2022-09-20T17:59:15;6.90;;;1.10;;
44486;SDS011;30191;50.908;6.962;2022-09-20T18:01:42;6.22;;;1.30;;
44486;SDS011;30191;50.908;6.962;2022-09-20T18:04:09;6.20;;;1.58;;
44486;SDS011;30191;50.908;6.962;2022-09-20T18:06:49;4.53;;;1.27;;
44486;SDS011;30191;50.908;6.962;2022-09-20T18:09:16;3.72;;;1.10;;
44486;SDS011;30191;50.908;6.962;2022-09-20T18:11:48;5.13;;;1.10;;
44486;SDS011;30191;50.908;6.962;2022-09-20T18:14:17;3.47;;;1.15;;
44486;SDS011;30191;50.908;6.962;2022-09-20T18:16:44;4.30;;;1.30;;
44486;SDS011;30191;50.908;6.962;2022-09-20T18:19:11;4.93;;;1.20;;
44486;SDS011;30191;50.908;6.962;2022-09-20T18:21:38;5.50;;;1.75;;
44486;SDS011;30191;50.908;6.962;2022-09-20T18:24:05;4.22;;;1.50;;
44486;SDS011;30191;50.908;6.962;2022-09-20T18:26:31;3.20;;;1.10;;
44486;SDS011;30191;50.908;6.962;2022-09-20T18:29:02;5.70;;;1.30;;
44486;SDS011;30191;50.908;6.962;2022-09-20T18:34:01;3.40;;;1.20;;
44486;SDS011;30191;50.908;6.962;2022-09-20T18:36:30;4.72;;;1.25;;
44486;SDS011;30191;50.908;6.962;2022-09-20T18:40:29;8.13;;;1.65;;
44486;SDS011;30191;50.908;6.962;2022-09-20T18:42:56;5.38;;;1.77;;
44486;SDS011;30191;50.908;6.962;2022-09-20T18:45:23;5.97;;;1.42;;
44486;SDS011;30191;50.908;6.962;2022-09-20T18:47:49;7.43;;;1.60;;
44486;SDS011;30191;50.908;6.962;2022-09-20T18:50:21;6.97;;;2.03;;
44486;SDS011;30191;50.908;6.962;2022-09-20T18:52:48;5.60;;;1.73;;
44486;SDS011;30191;50.908;6.962;2022-09-20T18:55:15;7.25;;;2.03;;
44486;SDS011;30191;50.908;6.962;2022-09-20T18:57:41;6.88;;;1.98;;
44486;SDS011;30191;50.908;6.962;2022-09-20T19:00:08;3.25;;;1.63;;
44486;SDS011;30191;50.908;6.962;2022-09-20T19:05:37;7.57;;;2.08;;
44486;SDS011;30191;50.908;6.962;2022-09-20T19:08:19;5.05;;;2.10;;
44486;SDS011;30191;50.908;6.962;2022-09-20T19:11:00;4.05;;;1.70;;
44486;SDS011;30191;50.908;6.962;2022-09-20T19:13:49;7.47;;;2.13;;
44486;SDS011;30191;50.908;6.962;2022-09-20T19:16:28;4.15;;;1.65;;
44486;SDS011;30191;50.908;6.962;2022-09-20T19:19:05;5.75;;;1.90;;
44486;SDS011;30191;50.908;6.962;2022-09-20T19:22:00;5.63;;;1.80;;
44486;SDS011;30191;50.908;6.962;2022-09-20T19:27:44;6.30;;;2.30;;
44486;SDS011;30191;50.908;6.962;2022-09-20T19:30:13;6.03;;;2.10;;
44486;SDS011;30191;50.908;6.962;2022-09-20T19:32:39;8.55;;;2.30;;
44486;SDS011;30191;50.908;6.962;2022-09-20T19:35:13;6.70;;;2.72;;
44486;SDS011;30191;50.908;6.962;2022-09-20T19:51:39;5.57;;;2.42;;
44486;SDS011;30191;50.908;6.962;2022-09-20T19:54:08;5.95;;;2.80;;
44486;SDS011;30191;50.908;6.962;2022-09-20T19:56:48;7.20;;;2.90;;
44486;SDS011;30191;50.908;6.962;2022-09-20T19:59:19;4.97;;;2.17;;
44486;SDS011;30191;50.908;6.962;2022-09-20T20:01:45;4.53;;;2.50;;
44486;SDS011;30191;50.908;6.962;2022-09-20T20:04:11;6.03;;;2.72;;
44486;SDS011;30191;50.908;6.962;2022-09-20T20:06:49;4.45;;;2.67;;
44486;SDS011;30191;50.908;6.962;2022-09-20T20:09:24;4.35;;;2.90;;
44486;SDS011;30191;50.908;6.962;2022-09-20T20:12:08;5.40;;;2.80;;
44486;SDS011;30191;50.908;6.962;2022-09-20T20:14:43;6.78;;;2.63;;
44486;SDS011;30191;50.908;6.962;2022-09-20T20:23:11;8.55;;;2.58;;
44486;SDS011;30191;50.908;6.962;2022-09-20T20:28:31;5.80;;;2.40;;
44486;SDS011;30191;50.908;6.962;2022-09-20T20:30:58;6.47;;;2.70;;
44486;SDS011;30191;50.908;6.962;2022-09-20T20:33:26;5.22;;;2.58;;
44486;SDS011;30191;50.908;6.962;2022-09-20T20:35:52;5.63;;;2.60;;
44486;SDS011;30191;50.908;6.962;2022-09-20T20:38:19;4.57;;;2.45;;
44486;SDS011;30191;50.908;6.962;2022-09-20T20:40:47;5.00;;;2.65;;
44486;SDS011;30191;50.908;6.962;2022-09-20T20:43:22;4.70;;;2.40;;
44486;SDS011;30191;50.908;6.962;2022-09-20T20:45:49;5.45;;;2.47;;
44486;SDS011;30191;50.908;6.962;2022-09-20T20:48:15;5.72;;;2.50;;
44486;SDS011;30191;50.908;6.962;2022-09-20T20:50:41;6.38;;;2.35;;
44486;SDS011;30191;50.908;6.962;2022-09-20T20:53:06;4.53;;;2.25;;
44486;SDS011;30191;50.908;6.962;2022-09-20T20:55:32;6.85;;;2.60;;
44486;SDS011;30191;50.908;6.962;2022-09-20T20:57:58;8.07;;;2.60;;
44486;SDS011;30191;50.908;6.962;2022-09-20T21:00:24;6.05;;;2.50;;
44486;SDS011;30191;50.908;6.962;2022-09-20T21:02:55;5.55;;;2.60;;
44486;SDS011;30191;50.908;6.962;2022-09-20T21:05:24;7.00;;;2.58;;